sensor_id;sensor_type;location;lat;lon;timestamp;temperature;humidity
1766;DHT22;880;52.452;8.656;2024-01-16T00:01:56;1.60;99.90
1766;DHT22;880;52.452;8.656;2024-01-16T00:04:23;1.70;99.90
1766;DHT22;880;52.452;8.656;2024-01-16T00:06:53;1.70;99.90
1766;DHT22;880;52.452;8.656;2024-01-16T00:09:20;1.60;99.90
1766;DHT22;880;52.452;8.656;2024-01-16T00:11:47;1.60;99.90
1766;DHT22;880;52.452;8.656;2024-01-16T00:14:14;1.60;99.90
1766;DHT22;880;52.452;8.656;2024-01-16T00:16:45;1.60;99.90
1766;DHT22;880;52.452;8.656;2024-01-16T00:19:13;1.50;99.90
1766;DHT22;880;52.452;8.656;2024-01-16T00:21:44;1.50;99.90
1766;DHT22;880;52.452;8.656;2024-01-16T00:24:14;1.50;99.90
1766;DHT22;880;52.452;8.656;2024-01-16T00:26:41;1.50;99.90
1766;DHT22;880;52.452;8.656;2024-01-16T00:29:09;1.50;99.90
1766;DHT22;880;52.452;8.656;2024-01-16T00:31:36;1.50;99.90
1766;DHT22;880;52.452;8.656;2024-01-16T00:34:03;1.50;99.90
1766;DHT22;880;52.452;8.656;2024-01-16T00:36:30;1.50;99.90
1766;DHT22;880;52.452;8.656;2024-01-16T00:38:57;1.50;99.90
1766;DHT22;880;52.452;8.656;2024-01-16T00:41:24;1.40;99.90
1766;DHT22;880;52.452;8.656;2024-01-16T00:43:51;1.40;99.90
1766;DHT22;880;52.452;8.656;2024-01-16T00:46:18;1.40;99.90
1766;DHT22;880;52.452;8.656;2024-01-16T00:48:45;1.40;99.90
1766;DHT22;880;52.452;8.656;2024-01-16T00:51:13;1.40;99.90
1766;DHT22;880;52.452;8.656;2024-01-16T00:53:43;1.40;99.90
1766;DHT22;880;52.452;8.656;2024-01-16T00:56:11;1.40;99.90
1766;DHT22;880;52.452;8.656;2024-01-16T00:58:39;1.40;99.90
1766;DHT22;880;52.452;8.656;2024-01-16T01:01:06;1.30;99.90
1766;DHT22;880;52.452;8.656;2024-01-16T01:03:33;1.30;99.90
1766;DHT22;880;52.452;8.656;2024-01-16T01:06:01;1.20;99.90
1766;DHT22;880;52.452;8.656;2024-01-16T01:08:28;1.20;99.90
1766;DHT22;880;52.452;8.656;2024-01-16T01:10:55;1.10;99.90
1766;DHT22;880;52.452;8.656;2024-01-16T01:13:22;1.20;99.90
1766;DHT22;880;52.452;8.656;2024-01-16T01:15:51;1.10;99.90
1766;DHT22;880;52.452;8.656;2024-01-16T01:18:19;1.10;99.90
1766;DHT22;880;52.452;8.656;2024-01-16T01:20:47;1.10;99.90
1766;DHT22;880;52.452;8.656;2024-01-16T01:23:14;1.00;99.90
1766;DHT22;880;52.452;8.656;2024-01-16T01:25:41;1.10;99.90
1766;DHT22;880;52.452;8.656;2024-01-16T01:28:10;1.00;99.90
1766;DHT22;880;52.452;8.656;2024-01-16T01:30:37;1.00;99.90
1766;DHT22;880;52.452;8.656;2024-01-16T01:33:05;1.00;99.90
1766;DHT22;880;52.452;8.656;2024-01-16T01:35:32;1.00;99.90
1766;DHT22;880;52.452;8.656;2024-01-16T01:37:59;0.90;99.90
1766;DHT22;880;52.452;8.656;2024-01-16T01:40:26;1.00;99.90
1766;DHT22;880;52.452;8.656;2024-01-16T01:42:53;1.00;99.90
1766;DHT22;880;52.452;8.656;2024-01-16T01:45:20;1.10;99.90
1766;DHT22;880;52.452;8.656;2024-01-16T01:47:48;1.10;99.90
1766;DHT22;880;52.452;8.656;2024-01-16T01:50:16;1.10;99.90
1766;DHT22;880;52.452;8.656;2024-01-16T01:52:43;1.20;99.90
1766;DHT22;880;52.452;8.656;2024-01-16T01:55:12;1.30;99.90
1766;DHT22;880;52.452;8.656;2024-01-16T01:57:40;1.20;99.90
1766;DHT22;880;52.452;8.656;2024-01-16T02:00:10;1.20;99.90
1766;DHT22;880;52.452;8.656;2024-01-16T02:02:41;1.20;99.90
1766;DHT22;880;52.452;8.656;2024-01-16T02:05:09;1.20;99.90
1766;DHT22;880;52.452;8.656;2024-01-16T02:07:38;1.20;99.90
1766;DHT22;880;52.452;8.656;2024-01-16T02:10:05;1.20;99.90
1766;DHT22;880;52.452;8.656;2024-01-16T02:12:33;1.10;99.90
1766;DHT22;880;52.452;8.656;2024-01-16T02:15:00;1.00;99.90
1766;DHT22;880;52.452;8.656;2024-01-16T02:17:28;1.10;99.90
1766;DHT22;880;52.452;8.656;2024-01-16T02:19:55;1.10;99.90
1766;DHT22;880;52.452;8.656;2024-01-16T02:22:25;1.00;99.90
1766;DHT22;880;52.452;8.656;2024-01-16T02:24:55;1.10;99.90
1766;DHT22;880;52.452;8.656;2024-01-16T02:27:23;1.10;99.90
1766;DHT22;880;52.452;8.656;2024-01-16T02:29:50;1.10;99.90
1766;DHT22;880;52.452;8.656;2024-01-16T02:32:17;1.20;99.90
1766;DHT22;880;52.452;8.656;2024-01-16T02:34:44;1.20;99.90
1766;DHT22;880;52.452;8.656;2024-01-16T02:37:12;1.10;99.90
1766;DHT22;880;52.452;8.656;2024-01-16T02:39:39;1.00;99.90
1766;DHT22;880;52.452;8.656;2024-01-16T02:42:06;1.10;99.90
1766;DHT22;880;52.452;8.656;2024-01-16T02:44:33;1.10;99.90
1766;DHT22;880;52.452;8.656;2024-01-16T02:47:00;1.00;99.90
1766;DHT22;880;52.452;8.656;2024-01-16T02:49:27;1.10;99.90
1766;DHT22;880;52.452;8.656;2024-01-16T02:51:55;1.00;99.90
1766;DHT22;880;52.452;8.656;2024-01-16T02:54:22;1.00;99.90
1766;DHT22;880;52.452;8.656;2024-01-16T02:56:49;0.90;99.90
1766;DHT22;880;52.452;8.656;2024-01-16T02:59:17;0.80;99.90
1766;DHT22;880;52.452;8.656;2024-01-16T03:01:44;0.80;99.90
1766;DHT22;880;52.452;8.656;2024-01-16T03:04:11;0.80;99.90
1766;DHT22;880;52.452;8.656;2024-01-16T03:06:38;0.80;99.90
1766;DHT22;880;52.452;8.656;2024-01-16T03:09:06;0.80;99.90
1766;DHT22;880;52.452;8.656;2024-01-16T03:11:33;0.80;99.90
1766;DHT22;880;52.452;8.656;2024-01-16T03:14:00;0.80;99.90
1766;DHT22;880;52.452;8.656;2024-01-16T03:16:27;0.70;99.90
1766;DHT22;880;52.452;8.656;2024-01-16T03:18:54;0.70;99.90
1766;DHT22;880;52.452;8.656;2024-01-16T03:21:22;0.70;99.90
1766;DHT22;880;52.452;8.656;2024-01-16T03:23:49;0.70;99.90
1766;DHT22;880;52.452;8.656;2024-01-16T03:26:16;0.70;99.90
1766;DHT22;880;52.452;8.656;2024-01-16T03:28:44;0.70;99.90
1766;DHT22;880;52.452;8.656;2024-01-16T03:31:14;0.70;99.90
1766;DHT22;880;52.452;8.656;2024-01-16T03:33:42;0.70;99.90
1766;DHT22;880;52.452;8.656;2024-01-16T03:36:10;0.70;99.90
1766;DHT22;880;52.452;8.656;2024-01-16T03:38:39;0.70;99.90
1766;DHT22;880;52.452;8.656;2024-01-16T03:41:06;0.70;99.90
1766;DHT22;880;52.452;8.656;2024-01-16T03:43:34;0.60;99.90
1766;DHT22;880;52.452;8.656;2024-01-16T03:46:02;0.70;99.90
1766;DHT22;880;52.452;8.656;2024-01-16T03:48:29;0.70;99.90
1766;DHT22;880;52.452;8.656;2024-01-16T03:50:56;0.70;99.90
1766;DHT22;880;52.452;8.656;2024-01-16T03:53:23;0.70;99.90
1766;DHT22;880;52.452;8.656;2024-01-16T03:55:50;0.80;99.90
1766;DHT22;880;52.452;8.656;2024-01-16T03:58:18;0.80;99.90
1766;DHT22;880;52.452;8.656;2024-01-16T04:00:45;0.80;99.90
1766;DHT22;880;52.452;8.656;2024-01-16T04:03:12;0.80;99.90
1766;DHT22;880;52.452;8.656;2024-01-16T04:05:40;0.80;99.90
1766;DHT22;880;52.452;8.656;2024-01-16T04:08:07;0.80;99.90
1766;DHT22;880;52.452;8.656;2024-01-16T04:10:34;0.90;99.90
1766;DHT22;880;52.452;8.656;2024-01-16T04:13:02;0.70;99.90
1766;DHT22;880;52.452;8.656;2024-01-16T04:15:29;0.70;99.90
1766;DHT22;880;52.452;8.656;2024-01-16T04:17:56;0.70;99.90
1766;DHT22;880;52.452;8.656;2024-01-16T04:20:23;0.70;99.90
1766;DHT22;880;52.452;8.656;2024-01-16T04:22:51;0.70;99.90
1766;DHT22;880;52.452;8.656;2024-01-16T04:25:18;0.70;99.90
1766;DHT22;880;52.452;8.656;2024-01-16T04:27:45;0.60;99.90
1766;DHT22;880;52.452;8.656;2024-01-16T04:30:13;0.60;99.90
1766;DHT22;880;52.452;8.656;2024-01-16T04:32:40;0.60;99.90
1766;DHT22;880;52.452;8.656;2024-01-16T04:35:07;0.60;99.90
1766;DHT22;880;52.452;8.656;2024-01-16T04:37:35;0.60;99.90
1766;DHT22;880;52.452;8.656;2024-01-16T04:40:02;0.60;99.90
1766;DHT22;880;52.452;8.656;2024-01-16T04:42:32;0.60;99.90
1766;DHT22;880;52.452;8.656;2024-01-16T04:44:59;0.50;99.90
1766;DHT22;880;52.452;8.656;2024-01-16T04:47:26;0.50;99.90
1766;DHT22;880;52.452;8.656;2024-01-16T04:49:54;0.50;99.90
1766;DHT22;880;52.452;8.656;2024-01-16T04:52:21;0.50;99.90
1766;DHT22;880;52.452;8.656;2024-01-16T04:54:48;0.50;99.90
1766;DHT22;880;52.452;8.656;2024-01-16T04:57:15;0.50;99.90
1766;DHT22;880;52.452;8.656;2024-01-16T04:59:42;0.50;99.90
1766;DHT22;880;52.452;8.656;2024-01-16T05:02:09;0.50;99.90
1766;DHT22;880;52.452;8.656;2024-01-16T05:04:37;0.60;99.90
1766;DHT22;880;52.452;8.656;2024-01-16T05:07:05;0.60;99.90
1766;DHT22;880;52.452;8.656;2024-01-16T05:09:32;0.60;99.90
1766;DHT22;880;52.452;8.656;2024-01-16T05:11:59;0.60;99.90
1766;DHT22;880;52.452;8.656;2024-01-16T05:14:27;0.60;99.90
1766;DHT22;880;52.452;8.656;2024-01-16T05:16:54;0.60;99.90
1766;DHT22;880;52.452;8.656;2024-01-16T05:19:21;0.60;99.90
1766;DHT22;880;52.452;8.656;2024-01-16T05:21:48;0.60;99.90
1766;DHT22;880;52.452;8.656;2024-01-16T05:24:15;0.60;99.90
1766;DHT22;880;52.452;8.656;2024-01-16T05:26:42;0.60;99.90
1766;DHT22;880;52.452;8.656;2024-01-16T05:29:10;0.70;99.90
1766;DHT22;880;52.452;8.656;2024-01-16T05:31:41;0.60;99.90
1766;DHT22;880;52.452;8.656;2024-01-16T05:34:09;0.70;99.90
1766;DHT22;880;52.452;8.656;2024-01-16T05:36:37;0.70;99.90
1766;DHT22;880;52.452;8.656;2024-01-16T05:39:04;0.70;99.90
1766;DHT22;880;52.452;8.656;2024-01-16T05:41:34;0.70;99.90
1766;DHT22;880;52.452;8.656;2024-01-16T05:44:01;0.70;99.90
1766;DHT22;880;52.452;8.656;2024-01-16T05:46:32;0.70;99.90
1766;DHT22;880;52.452;8.656;2024-01-16T05:49:00;0.70;99.90
1766;DHT22;880;52.452;8.656;2024-01-16T05:51:28;0.70;99.90
1766;DHT22;880;52.452;8.656;2024-01-16T05:53:58;0.70;99.90
1766;DHT22;880;52.452;8.656;2024-01-16T05:56:25;0.70;99.90
1766;DHT22;880;52.452;8.656;2024-01-16T05:58:52;0.70;99.90
1766;DHT22;880;52.452;8.656;2024-01-16T06:01:19;0.70;99.90
1766;DHT22;880;52.452;8.656;2024-01-16T06:03:46;0.70;99.90
1766;DHT22;880;52.452;8.656;2024-01-16T06:06:16;0.70;99.90
1766;DHT22;880;52.452;8.656;2024-01-16T06:08:43;0.80;99.90
1766;DHT22;880;52.452;8.656;2024-01-16T06:11:11;0.80;99.90
1766;DHT22;880;52.452;8.656;2024-01-16T06:13:40;0.80;99.90
1766;DHT22;880;52.452;8.656;2024-01-16T06:16:08;0.80;99.90
1766;DHT22;880;52.452;8.656;2024-01-16T06:18:35;0.70;99.90
1766;DHT22;880;52.452;8.656;2024-01-16T06:21:03;0.70;99.90
1766;DHT22;880;52.452;8.656;2024-01-16T06:23:30;0.70;99.90
1766;DHT22;880;52.452;8.656;2024-01-16T06:25:59;0.70;99.90
1766;DHT22;880;52.452;8.656;2024-01-16T06:28:27;0.70;99.90
1766;DHT22;880;52.452;8.656;2024-01-16T06:30:54;0.70;99.90
1766;DHT22;880;52.452;8.656;2024-01-16T06:33:21;0.70;99.90
1766;DHT22;880;52.452;8.656;2024-01-16T06:35:48;0.80;99.90
1766;DHT22;880;52.452;8.656;2024-01-16T06:38:20;0.80;99.90
1766;DHT22;880;52.452;8.656;2024-01-16T06:40:47;0.80;99.90
1766;DHT22;880;52.452;8.656;2024-01-16T06:43:15;0.70;99.90
1766;DHT22;880;52.452;8.656;2024-01-16T06:45:43;0.70;99.90
1766;DHT22;880;52.452;8.656;2024-01-16T06:48:10;0.60;99.90
1766;DHT22;880;52.452;8.656;2024-01-16T06:50:37;0.70;99.90
1766;DHT22;880;52.452;8.656;2024-01-16T06:53:05;0.60;99.90
1766;DHT22;880;52.452;8.656;2024-01-16T06:55:31;0.60;99.90
1766;DHT22;880;52.452;8.656;2024-01-16T06:57:58;0.60;99.90
1766;DHT22;880;52.452;8.656;2024-01-16T07:00:25;0.60;99.90
1766;DHT22;880;52.452;8.656;2024-01-16T07:02:54;0.60;99.90
1766;DHT22;880;52.452;8.656;2024-01-16T07:05:21;0.60;99.90
1766;DHT22;880;52.452;8.656;2024-01-16T07:07:49;0.60;99.90
1766;DHT22;880;52.452;8.656;2024-01-16T07:10:16;0.50;99.90
1766;DHT22;880;52.452;8.656;2024-01-16T07:12:48;0.60;99.90
1766;DHT22;880;52.452;8.656;2024-01-16T07:15:16;0.60;99.90
1766;DHT22;880;52.452;8.656;2024-01-16T07:17:43;0.50;99.90
1766;DHT22;880;52.452;8.656;2024-01-16T07:20:10;0.50;99.90
1766;DHT22;880;52.452;8.656;2024-01-16T07:22:38;0.60;99.90
1766;DHT22;880;52.452;8.656;2024-01-16T07:25:07;0.60;99.90
1766;DHT22;880;52.452;8.656;2024-01-16T07:27:34;0.60;99.90
1766;DHT22;880;52.452;8.656;2024-01-16T07:30:04;0.60;99.90
1766;DHT22;880;52.452;8.656;2024-01-16T07:32:31;0.60;99.90
1766;DHT22;880;52.452;8.656;2024-01-16T07:34:59;0.60;99.90
1766;DHT22;880;52.452;8.656;2024-01-16T07:37:26;0.60;99.90
1766;DHT22;880;52.452;8.656;2024-01-16T07:39:53;0.60;99.90
1766;DHT22;880;52.452;8.656;2024-01-16T07:42:20;0.50;99.90
1766;DHT22;880;52.452;8.656;2024-01-16T07:44:47;0.60;99.90
1766;DHT22;880;52.452;8.656;2024-01-16T07:47:14;0.60;99.90
1766;DHT22;880;52.452;8.656;2024-01-16T07:49:42;0.60;99.90
1766;DHT22;880;52.452;8.656;2024-01-16T07:52:09;0.60;99.90
1766;DHT22;880;52.452;8.656;2024-01-16T07:54:38;0.60;99.90
1766;DHT22;880;52.452;8.656;2024-01-16T07:57:05;0.60;99.90
1766;DHT22;880;52.452;8.656;2024-01-16T07:59:33;0.50;99.90
1766;DHT22;880;52.452;8.656;2024-01-16T08:02:00;0.60;99.90
1766;DHT22;880;52.452;8.656;2024-01-16T08:04:27;0.60;99.90
1766;DHT22;880;52.452;8.656;2024-01-16T08:06:54;0.60;99.90
1766;DHT22;880;52.452;8.656;2024-01-16T08:09:21;0.60;99.90
1766;DHT22;880;52.452;8.656;2024-01-16T08:11:48;0.60;99.90
1766;DHT22;880;52.452;8.656;2024-01-16T08:14:16;0.60;99.90
1766;DHT22;880;52.452;8.656;2024-01-16T08:16:43;0.60;99.90
1766;DHT22;880;52.452;8.656;2024-01-16T08:19:10;0.60;99.90
1766;DHT22;880;52.452;8.656;2024-01-16T08:21:37;0.70;99.90
1766;DHT22;880;52.452;8.656;2024-01-16T08:24:04;0.70;99.90
1766;DHT22;880;52.452;8.656;2024-01-16T08:26:31;0.70;99.90
1766;DHT22;880;52.452;8.656;2024-01-16T08:28:58;0.70;99.90
1766;DHT22;880;52.452;8.656;2024-01-16T08:31:25;0.70;99.90
1766;DHT22;880;52.452;8.656;2024-01-16T08:33:52;0.70;99.90
1766;DHT22;880;52.452;8.656;2024-01-16T08:36:23;0.70;99.90
1766;DHT22;880;52.452;8.656;2024-01-16T08:38:50;0.70;99.90
1766;DHT22;880;52.452;8.656;2024-01-16T08:41:17;0.60;99.90
1766;DHT22;880;52.452;8.656;2024-01-16T08:43:44;0.70;99.90
1766;DHT22;880;52.452;8.656;2024-01-16T08:46:11;0.70;99.90
1766;DHT22;880;52.452;8.656;2024-01-16T08:48:38;0.70;99.90
1766;DHT22;880;52.452;8.656;2024-01-16T08:51:10;0.70;99.90
1766;DHT22;880;52.452;8.656;2024-01-16T08:53:38;0.70;99.90
1766;DHT22;880;52.452;8.656;2024-01-16T08:56:05;0.80;99.90
1766;DHT22;880;52.452;8.656;2024-01-16T08:58:35;0.80;99.90
1766;DHT22;880;52.452;8.656;2024-01-16T09:01:05;0.80;99.90
1766;DHT22;880;52.452;8.656;2024-01-16T09:03:33;0.90;99.90
1766;DHT22;880;52.452;8.656;2024-01-16T09:06:01;0.90;99.90
1766;DHT22;880;52.452;8.656;2024-01-16T09:08:28;0.90;99.90
1766;DHT22;880;52.452;8.656;2024-01-16T09:10:56;0.90;99.90
1766;DHT22;880;52.452;8.656;2024-01-16T09:13:23;0.90;99.90
1766;DHT22;880;52.452;8.656;2024-01-16T09:15:50;0.90;99.90
1766;DHT22;880;52.452;8.656;2024-01-16T09:18:17;1.00;99.90
1766;DHT22;880;52.452;8.656;2024-01-16T09:20:45;1.00;99.90
1766;DHT22;880;52.452;8.656;2024-01-16T09:23:12;1.00;99.90
1766;DHT22;880;52.452;8.656;2024-01-16T09:25:39;1.00;99.90
1766;DHT22;880;52.452;8.656;2024-01-16T09:28:06;1.10;99.90
1766;DHT22;880;52.452;8.656;2024-01-16T09:30:33;1.20;99.90
1766;DHT22;880;52.452;8.656;2024-01-16T09:33:01;1.20;99.90
1766;DHT22;880;52.452;8.656;2024-01-16T09:35:28;1.30;99.90
1766;DHT22;880;52.452;8.656;2024-01-16T09:37:55;1.40;99.90
1766;DHT22;880;52.452;8.656;2024-01-16T09:40:22;1.50;99.90
1766;DHT22;880;52.452;8.656;2024-01-16T09:42:49;1.60;99.90
1766;DHT22;880;52.452;8.656;2024-01-16T09:45:20;1.70;99.90
1766;DHT22;880;52.452;8.656;2024-01-16T09:47:51;1.80;99.90
1766;DHT22;880;52.452;8.656;2024-01-16T09:50:19;1.90;99.90
1766;DHT22;880;52.452;8.656;2024-01-16T09:52:49;2.10;99.90
1766;DHT22;880;52.452;8.656;2024-01-16T09:55:16;2.10;99.90
1766;DHT22;880;52.452;8.656;2024-01-16T09:57:45;2.20;99.90
1766;DHT22;880;52.452;8.656;2024-01-16T10:00:13;2.30;99.90
1766;DHT22;880;52.452;8.656;2024-01-16T10:02:41;2.40;99.90
1766;DHT22;880;52.452;8.656;2024-01-16T10:05:12;2.60;99.90
1766;DHT22;880;52.452;8.656;2024-01-16T10:07:42;2.60;99.90
1766;DHT22;880;52.452;8.656;2024-01-16T10:10:12;2.70;99.90
1766;DHT22;880;52.452;8.656;2024-01-16T10:12:41;2.90;99.90
1766;DHT22;880;52.452;8.656;2024-01-16T10:15:09;3.00;99.90
1766;DHT22;880;52.452;8.656;2024-01-16T10:17:41;2.90;99.90
1766;DHT22;880;52.452;8.656;2024-01-16T10:20:11;2.80;99.90
1766;DHT22;880;52.452;8.656;2024-01-16T10:22:53;2.60;99.90
1766;DHT22;880;52.452;8.656;2024-01-16T10:25:20;2.40;99.90
1766;DHT22;880;52.452;8.656;2024-01-16T10:27:49;2.30;99.90
1766;DHT22;880;52.452;8.656;2024-01-16T10:30:29;2.20;99.90
1766;DHT22;880;52.452;8.656;2024-01-16T10:33:14;2.20;99.90
1766;DHT22;880;52.452;8.656;2024-01-16T10:35:43;2.20;99.90
1766;DHT22;880;52.452;8.656;2024-01-16T10:38:20;2.20;99.90
1766;DHT22;880;52.452;8.656;2024-01-16T10:41:04;2.20;99.90
1766;DHT22;880;52.452;8.656;2024-01-16T10:43:44;2.20;99.90
1766;DHT22;880;52.452;8.656;2024-01-16T10:46:15;2.20;99.90
1766;DHT22;880;52.452;8.656;2024-01-16T10:49:00;2.30;99.90
1766;DHT22;880;52.452;8.656;2024-01-16T10:51:31;2.20;99.90
1766;DHT22;880;52.452;8.656;2024-01-16T10:54:12;2.10;99.90
1766;DHT22;880;52.452;8.656;2024-01-16T10:56:45;2.20;99.90
1766;DHT22;880;52.452;8.656;2024-01-16T10:59:21;2.10;99.90
1766;DHT22;880;52.452;8.656;2024-01-16T11:01:54;2.10;99.90
1766;DHT22;880;52.452;8.656;2024-01-16T11:04:23;2.00;99.90
1766;DHT22;880;52.452;8.656;2024-01-16T11:06:54;2.00;99.90
1766;DHT22;880;52.452;8.656;2024-01-16T11:09:21;2.00;99.90
1766;DHT22;880;52.452;8.656;2024-01-16T11:11:50;2.00;99.90
1766;DHT22;880;52.452;8.656;2024-01-16T11:14:18;2.00;99.90
1766;DHT22;880;52.452;8.656;2024-01-16T11:16:50;2.00;99.90
1766;DHT22;880;52.452;8.656;2024-01-16T11:19:18;2.10;99.90
1766;DHT22;880;52.452;8.656;2024-01-16T11:22:06;2.00;99.90
1766;DHT22;880;52.452;8.656;2024-01-16T11:24:33;2.00;99.90
1766;DHT22;880;52.452;8.656;2024-01-16T11:27:00;2.10;99.90
1766;DHT22;880;52.452;8.656;2024-01-16T11:31:56;2.00;99.90
1766;DHT22;880;52.452;8.656;2024-01-16T11:37:12;2.10;99.90
1766;DHT22;880;52.452;8.656;2024-01-16T11:39:40;2.10;99.90
1766;DHT22;880;52.452;8.656;2024-01-16T11:42:07;2.00;99.90
1766;DHT22;880;52.452;8.656;2024-01-16T11:44:48;2.10;99.90
1766;DHT22;880;52.452;8.656;2024-01-16T11:47:22;2.10;99.90
1766;DHT22;880;52.452;8.656;2024-01-16T11:50:07;2.10;99.90
1766;DHT22;880;52.452;8.656;2024-01-16T11:52:43;2.10;99.90
1766;DHT22;880;52.452;8.656;2024-01-16T11:56:06;2.10;99.90
1766;DHT22;880;52.452;8.656;2024-01-16T12:01:58;2.30;99.90
1766;DHT22;880;52.452;8.656;2024-01-16T12:04:30;2.20;99.90
1766;DHT22;880;52.452;8.656;2024-01-16T12:06:58;2.20;99.90
1766;DHT22;880;52.452;8.656;2024-01-16T12:09:31;2.20;99.90
1766;DHT22;880;52.452;8.656;2024-01-16T12:12:02;2.30;99.90
1766;DHT22;880;52.452;8.656;2024-01-16T12:14:30;2.30;99.90
1766;DHT22;880;52.452;8.656;2024-01-16T12:17:13;2.30;99.90
1766;DHT22;880;52.452;8.656;2024-01-16T12:19:41;2.20;99.90
1766;DHT22;880;52.452;8.656;2024-01-16T12:22:13;2.20;99.90
1766;DHT22;880;52.452;8.656;2024-01-16T12:24:40;2.20;99.90
1766;DHT22;880;52.452;8.656;2024-01-16T12:27:08;2.30;99.90
1766;DHT22;880;52.452;8.656;2024-01-16T12:29:35;2.30;99.90
1766;DHT22;880;52.452;8.656;2024-01-16T12:32:10;2.30;99.90
1766;DHT22;880;52.452;8.656;2024-01-16T12:34:47;2.30;99.90
1766;DHT22;880;52.452;8.656;2024-01-16T12:37:15;2.30;99.90
1766;DHT22;880;52.452;8.656;2024-01-16T12:39:43;2.30;99.90
1766;DHT22;880;52.452;8.656;2024-01-16T12:42:11;2.30;99.90
1766;DHT22;880;52.452;8.656;2024-01-16T12:44:39;2.30;99.90
1766;DHT22;880;52.452;8.656;2024-01-16T12:47:06;2.20;99.90
1766;DHT22;880;52.452;8.656;2024-01-16T12:49:40;2.20;99.90
1766;DHT22;880;52.452;8.656;2024-01-16T12:52:20;2.20;99.90
1766;DHT22;880;52.452;8.656;2024-01-16T12:55:01;2.20;99.90
1766;DHT22;880;52.452;8.656;2024-01-16T12:57:31;2.20;99.90
1766;DHT22;880;52.452;8.656;2024-01-16T12:59:58;2.20;99.90
1766;DHT22;880;52.452;8.656;2024-01-16T13:02:27;2.20;99.90
1766;DHT22;880;52.452;8.656;2024-01-16T13:04:59;2.20;99.90
1766;DHT22;880;52.452;8.656;2024-01-16T13:07:30;2.20;99.90
1766;DHT22;880;52.452;8.656;2024-01-16T13:10:12;2.20;99.90
1766;DHT22;880;52.452;8.656;2024-01-16T13:12:42;2.20;99.90
1766;DHT22;880;52.452;8.656;2024-01-16T13:15:09;2.20;99.90
1766;DHT22;880;52.452;8.656;2024-01-16T13:17:38;2.20;99.90
1766;DHT22;880;52.452;8.656;2024-01-16T13:20:05;2.10;99.90
1766;DHT22;880;52.452;8.656;2024-01-16T13:22:36;2.00;99.90
1766;DHT22;880;52.452;8.656;2024-01-16T13:25:13;2.00;99.90
1766;DHT22;880;52.452;8.656;2024-01-16T13:27:40;2.00;99.90
1766;DHT22;880;52.452;8.656;2024-01-16T13:30:08;2.00;99.90
1766;DHT22;880;52.452;8.656;2024-01-16T13:32:35;2.00;99.90
1766;DHT22;880;52.452;8.656;2024-01-16T13:35:05;2.00;99.90
1766;DHT22;880;52.452;8.656;2024-01-16T13:37:35;2.00;99.90
1766;DHT22;880;52.452;8.656;2024-01-16T13:40:06;1.90;99.90
1766;DHT22;880;52.452;8.656;2024-01-16T13:42:42;1.90;99.90
1766;DHT22;880;52.452;8.656;2024-01-16T13:45:10;1.90;99.90
1766;DHT22;880;52.452;8.656;2024-01-16T13:47:40;2.00;99.90
1766;DHT22;880;52.452;8.656;2024-01-16T13:50:08;2.00;99.90
1766;DHT22;880;52.452;8.656;2024-01-16T13:52:36;1.90;99.90
1766;DHT22;880;52.452;8.656;2024-01-16T13:55:03;1.90;99.90
1766;DHT22;880;52.452;8.656;2024-01-16T13:57:32;1.90;99.90
1766;DHT22;880;52.452;8.656;2024-01-16T14:00:03;1.90;99.90
1766;DHT22;880;52.452;8.656;2024-01-16T14:02:37;1.90;99.90
1766;DHT22;880;52.452;8.656;2024-01-16T14:05:05;1.90;99.90
1766;DHT22;880;52.452;8.656;2024-01-16T14:07:32;1.90;99.90
1766;DHT22;880;52.452;8.656;2024-01-16T14:09:59;1.90;99.90
1766;DHT22;880;52.452;8.656;2024-01-16T14:12:30;2.00;99.90
1766;DHT22;880;52.452;8.656;2024-01-16T14:14:58;2.00;99.90
1766;DHT22;880;52.452;8.656;2024-01-16T14:17:27;1.90;99.90
1766;DHT22;880;52.452;8.656;2024-01-16T14:19:54;1.90;99.90
1766;DHT22;880;52.452;8.656;2024-01-16T14:22:21;1.90;99.90
1766;DHT22;880;52.452;8.656;2024-01-16T14:24:48;1.90;99.90
1766;DHT22;880;52.452;8.656;2024-01-16T14:27:17;1.90;99.90
1766;DHT22;880;52.452;8.656;2024-01-16T14:29:44;1.90;99.90
1766;DHT22;880;52.452;8.656;2024-01-16T14:32:11;1.90;99.90
1766;DHT22;880;52.452;8.656;2024-01-16T14:34:38;1.90;99.90
1766;DHT22;880;52.452;8.656;2024-01-16T14:37:06;1.90;99.90
1766;DHT22;880;52.452;8.656;2024-01-16T14:39:33;1.90;99.90
1766;DHT22;880;52.452;8.656;2024-01-16T14:42:02;1.90;99.90
1766;DHT22;880;52.452;8.656;2024-01-16T14:44:30;2.00;99.90
1766;DHT22;880;52.452;8.656;2024-01-16T14:46:57;1.90;99.90
1766;DHT22;880;52.452;8.656;2024-01-16T14:49:25;1.90;99.90
1766;DHT22;880;52.452;8.656;2024-01-16T14:51:58;1.90;99.90
1766;DHT22;880;52.452;8.656;2024-01-16T14:54:25;1.80;99.90
1766;DHT22;880;52.452;8.656;2024-01-16T14:56:52;1.80;99.90
1766;DHT22;880;52.452;8.656;2024-01-16T14:59:20;1.80;99.90
1766;DHT22;880;52.452;8.656;2024-01-16T15:01:47;1.80;99.90
1766;DHT22;880;52.452;8.656;2024-01-16T15:04:14;1.80;99.90
1766;DHT22;880;52.452;8.656;2024-01-16T15:06:41;1.80;99.90
1766;DHT22;880;52.452;8.656;2024-01-16T15:09:09;1.80;99.90
1766;DHT22;880;52.452;8.656;2024-01-16T15:11:39;1.90;99.90
1766;DHT22;880;52.452;8.656;2024-01-16T15:14:07;1.80;99.90
1766;DHT22;880;52.452;8.656;2024-01-16T15:16:33;1.70;99.90
1766;DHT22;880;52.452;8.656;2024-01-16T15:19:00;1.80;99.90
1766;DHT22;880;52.452;8.656;2024-01-16T15:21:28;1.80;99.90
1766;DHT22;880;52.452;8.656;2024-01-16T15:23:55;1.70;99.90
1766;DHT22;880;52.452;8.656;2024-01-16T15:26:22;1.60;99.90
1766;DHT22;880;52.452;8.656;2024-01-16T15:28:49;1.50;99.90
1766;DHT22;880;52.452;8.656;2024-01-16T15:31:17;1.40;99.90
1766;DHT22;880;52.452;8.656;2024-01-16T15:33:44;1.30;99.90
1766;DHT22;880;52.452;8.656;2024-01-16T15:36:12;1.20;99.90
1766;DHT22;880;52.452;8.656;2024-01-16T15:38:39;1.20;99.90
1766;DHT22;880;52.452;8.656;2024-01-16T15:41:06;1.10;99.90
1766;DHT22;880;52.452;8.656;2024-01-16T15:43:33;1.10;99.90
1766;DHT22;880;52.452;8.656;2024-01-16T15:46:02;1.10;99.90
1766;DHT22;880;52.452;8.656;2024-01-16T15:48:29;1.00;99.90
1766;DHT22;880;52.452;8.656;2024-01-16T15:51:01;1.00;99.90
1766;DHT22;880;52.452;8.656;2024-01-16T15:53:33;0.90;99.90
1766;DHT22;880;52.452;8.656;2024-01-16T15:56:00;0.90;99.90
1766;DHT22;880;52.452;8.656;2024-01-16T15:58:28;0.90;99.90
1766;DHT22;880;52.452;8.656;2024-01-16T16:00:58;0.90;99.90
1766;DHT22;880;52.452;8.656;2024-01-16T16:03:26;0.80;99.90
1766;DHT22;880;52.452;8.656;2024-01-16T16:05:53;0.80;99.90
1766;DHT22;880;52.452;8.656;2024-01-16T16:08:20;0.70;99.90
1766;DHT22;880;52.452;8.656;2024-01-16T16:10:48;0.80;99.90
1766;DHT22;880;52.452;8.656;2024-01-16T16:13:17;0.70;99.90
1766;DHT22;880;52.452;8.656;2024-01-16T16:15:44;0.80;99.90
1766;DHT22;880;52.452;8.656;2024-01-16T16:18:12;0.70;99.90
1766;DHT22;880;52.452;8.656;2024-01-16T16:20:39;0.70;99.90
1766;DHT22;880;52.452;8.656;2024-01-16T16:23:06;0.70;99.90
1766;DHT22;880;52.452;8.656;2024-01-16T16:25:34;0.60;99.90
1766;DHT22;880;52.452;8.656;2024-01-16T16:28:01;0.60;99.90
1766;DHT22;880;52.452;8.656;2024-01-16T16:30:28;0.60;99.90
1766;DHT22;880;52.452;8.656;2024-01-16T16:32:56;0.60;99.90
1766;DHT22;880;52.452;8.656;2024-01-16T16:35:23;0.60;99.90
1766;DHT22;880;52.452;8.656;2024-01-16T16:37:50;0.50;99.90
1766;DHT22;880;52.452;8.656;2024-01-16T16:40:17;0.50;99.90
1766;DHT22;880;52.452;8.656;2024-01-16T16:42:44;0.50;99.90
1766;DHT22;880;52.452;8.656;2024-01-16T16:45:11;0.50;99.90
1766;DHT22;880;52.452;8.656;2024-01-16T16:47:38;0.50;99.90
1766;DHT22;880;52.452;8.656;2024-01-16T16:50:05;0.50;99.90
1766;DHT22;880;52.452;8.656;2024-01-16T16:52:32;0.60;99.90